Latest Weather Observations for Adelaide Airport

IDS60901

Issued at 12:01 pm CST Tuesday 23 April 2019 (issued every 10 minutes, with the page automatically refreshed every 10 minutes)

About weather observations | Map of Adelaide area stations | Latest observations for Adelaide area | Other Formats
Station Details ID: 023034 Name: ADELAIDE AIRPORT Lat: -34.95 Lon: 138.52 Height: 2.0 m
Data from the previous 72 hours. | See also: Recent months at Adelaide Airport
Date/Time
CST
Temp
°C
App
Temp
°C
Dew
Point
°C
Rel
Hum
%
Delta-T
°C
Wind Press
QNH
hPa
Press
MSL
hPa
Rain since
9am
mm
Dir  Spd
km/h
Gust
km/h
Spd
kts
Gust
kts
23/11:30am 18.8 15.5 4.8 39 6.7 S 11 17 6 9 1027.6 1027.6 0.0
23/11:00am 19.1 16.3 5.3 40 6.7 SW 9 15 5 8 1027.9 1027.9 0.0
23/10:30am 18.1 15.0 5.4 43 6.1 SSE 11 17 6 9 1028.2 1028.2 0.0
23/10:00am 17.7 14.3 5.7 45 5.8 SE 13 20 7 11 1028.3 1028.3 0.0
23/09:30am 17.3 14.3 5.9 47 5.5 SE 11 17 6 9 1028.5 1028.5 0.0
23/09:00am 16.5 15.1 7.2 54 4.6 NE 4 7 2 4 1028.5 1028.5 0.0
23/08:30am 15.0 13.1 6.7 57 4.0 NNW 6 7 3 4 1028.4 1028.4 0.0
23/08:00am 13.4 11.5 7.4 67 2.9 NW 7 9 4 5 1028.4 1028.4 0.0
23/07:30am 12.1 10.1 7.1 71 2.4 NW 7 9 4 5 1028.1 1028.1 0.0
23/07:00am 10.6 9.1 6.8 77 1.8 NE 4 7 2 4 1027.8 1027.8 0.0
23/06:30am 11.1 8.7 6.9 75 2.0 E 9 11 5 6 1027.6 1027.6 0.0
23/06:00am 10.3 7.8 6.4 77 1.8 E 9 9 5 5 1027.3 1027.3 0.0
23/05:30am 10.4 7.6 7.0 79 1.6 ESE 11 13 6 7 1027.0 1027.0 0.0
23/05:00am 10.3 7.5 6.9 79 1.6 ESE 11 17 6 9 1026.6 1026.6 0.0
23/04:30am 11.0 8.3 7.4 78 1.7 ESE 11 15 6 8 1026.4 1026.4 0.0
23/04:00am 11.1 10.1 7.5 78 1.7 SE 2 7 1 4 1026.3 1026.3 0.0
23/03:30am 11.5 9.7 7.8 78 1.8 ESE 7 7 4 4 1026.5 1026.5 0.0
23/03:00am 12.2 10.0 7.9 75 2.1 ESE 9 11 5 6 1026.7 1026.7 0.0
23/02:30am 12.6 10.4 7.9 73 2.3 ESE 9 11 5 6 1026.8 1026.8 0.0
23/02:00am 12.0 9.8 7.9 76 2.0 SE 9 9 5 5 1027.1 1027.1 0.0
23/01:30am 11.5 9.5 7.3 75 2.0 SE 7 11 4 6 1027.3 1027.3 0.0
23/01:00am 12.5 10.7 7.8 73 2.3 SE 7 11 4 6 1027.4 1027.4 0.0
23/12:30am 13.0 10.8 7.9 71 2.5 SE 9 11 5 6 1027.6 1027.6 0.0
23/12:00am 12.9 10.7 7.8 71 2.5 SE 9 11 5 6 1027.8 1027.8 0.0
 
Date/Time
CST
Temp
°C
App
Temp
°C
Dew
Point
°C
Rel
Hum
%
Delta-T
°C
Wind Press
QNH
hPa
Press
MSL
hPa
Rain since
9am
mm
Dir  Spd
km/h
Gust
km/h
Spd
kts
Gust
kts
22/11:30pm 12.5 9.4 7.3 70 2.5 SE 13 17 7 9 1027.9 1027.9 0.0
22/11:00pm 12.2 9.1 7.2 71 2.4 SSE 13 19 7 10 1027.8 1027.8 0.0
22/10:30pm 12.7 9.6 7.3 69 2.6 SSE 13 17 7 9 1027.8 1027.8 0.0
22/10:00pm 13.0 10.2 6.9 66 2.9 SSE 11 19 6 10 1027.9 1027.9 0.0
22/09:30pm 12.7 9.5 6.8 67 2.8 S 13 15 7 8 1027.9 1027.9 0.0
22/09:00pm 13.1 10.3 6.8 65 3.0 S 11 17 6 9 1028.0 1028.0 0.0
22/08:30pm 13.6 10.4 6.9 64 3.2 SSE 13 19 7 10 1028.0 1028.0 0.0
22/08:00pm 14.4 11.2 7.0 61 3.6 SSE 13 17 7 9 1027.9 1027.9 0.0
22/07:30pm 14.8 10.8 6.7 58 3.9 SSE 17 22 9 12 1027.8 1027.8 0.0
22/07:00pm 15.5 11.7 5.9 52 4.6 SSE 15 22 8 12 1027.6 1027.6 0.0
22/06:30pm 15.7 11.0 5.1 49 5.0 S 19 26 10 14 1027.1 1027.1 0.0
22/06:00pm 16.3 11.1 5.6 49 5.1 S 22 32 12 17 1026.9 1026.9 0.0
22/05:30pm 16.8 10.9 5.8 48 5.3 S 26 33 14 18 1026.3 1026.3 0.0
22/05:00pm 17.7 11.8 6.0 46 5.7 S 26 33 14 18 1025.8 1025.8 0.0
22/04:30pm 18.5 12.4 4.9 40 6.5 S 26 35 14 19 1025.4 1025.4 0.0
22/04:00pm 19.4 14.9 4.3 37 7.2 SSE 17 26 9 14 1025.2 1025.2 0.0
22/03:30pm 19.4 14.3 6.0 41 6.6 SW 22 30 12 16 1025.2 1025.2 0.0
22/03:00pm 18.9 12.9 6.9 45 6.0 SW 28 35 15 19 1025.2 1025.2 0.0
22/02:30pm 19.7 14.7 3.5 34 7.6 SSE 19 26 10 14 1025.1 1025.1 0.0
22/02:00pm 19.5 14.3 3.5 34 7.5 SSE 20 30 11 16 1025.1 1025.1 0.0
22/01:30pm 20.1 14.6 4.2 35 7.6 SW 22 32 12 17 1025.2 1025.2 0.0
22/01:00pm 19.2 13.3 6.0 42 6.5 SW 26 33 14 18 1025.6 1025.6 0.0
22/12:30pm 18.9 13.6 5.0 40 6.7 SW 22 30 12 16 1025.8 1025.8 0.0
22/12:00pm 18.4 13.0 4.5 40 6.6 SW 22 30 12 16 1026.2 1026.2 0.0
22/11:30am 18.5 13.5 3.4 36 7.0 SW 19 24 10 13 1026.7 1026.7 0.0
22/11:00am 18.0 14.0 4.7 41 6.4 SSW 15 22 8 12 1027.0 1027.0 0.0
22/10:30am 18.0 13.6 4.7 41 6.3 S 17 28 9 15 1027.1 1027.1 0.0
22/10:00am 18.3 13.8 4.0 38 6.8 S 17 24 9 13 1027.0 1027.0 0.0
22/09:30am 17.6 13.7 5.3 44 5.9 SSE 15 19 8 10 1027.0 1027.0 0.0
22/09:00am 16.3 13.6 7.2 55 4.5 SSE 11 15 6 8 1026.9 1026.9 0.0
22/08:30am 14.5 12.2 7.6 63 3.4 SE 9 13 5 7 1026.7 1026.7 0.0
22/08:00am 12.9 11.2 8.2 73 2.3 SSE 7 9 4 5 1026.5 1026.5 0.0
22/07:30am 10.1 8.3 7.8 86 1.1 SE 7 9 4 5 1026.2 1026.2 0.0
22/07:00am 8.7 6.6 6.5 86 1.0 SE 7 9 4 5 1025.8 1025.8 0.0
22/06:30am 9.1 7.0 6.7 85 1.1 E 7 9 4 5 1025.4 1025.4 0.0
22/06:00am 9.2 6.9 7.3 88 0.9 SE 9 9 5 5 1025.4 1025.4 0.0
22/05:30am 9.1 6.7 7.0 87 1.0 SE 9 9 5 5 1025.3 1025.3 0.0
22/05:00am 9.5 7.7 7.2 85 1.1 ENE 6 7 3 4 1025.2 1025.2 0.0
22/04:30am 10.0 9.0 7.2 83 1.3 SE 2 7 1 4 1024.9 1024.9 0.0
22/04:00am 10.1 7.8 7.6 84 1.2 SSE 9 11 5 6 1024.6 1024.6 0.0
22/03:30am 9.6 7.2 7.0 84 1.2 SSE 9 9 5 5 1024.4 1024.4 0.0
22/03:00am 10.2 7.9 7.5 83 1.3 S 9 9 5 5 1024.6 1024.6 0.0
22/02:30am 10.3 9.4 7.6 83 1.3 SE 2 6 1 3 1024.6 1024.6 0.0
22/02:00am 10.8 8.6 7.7 81 1.5 ESE 9 9 5 5 1024.5 1024.5 0.0
22/01:30am 10.9 8.2 7.3 78 1.7 ESE 11 13 6 7 1024.4 1024.4 0.0
22/01:00am 11.2 8.5 7.4 77 1.8 SE 11 13 6 7 1024.4 1024.4 0.0
22/12:30am 11.6 8.9 7.4 75 2.0 SE 11 13 6 7 1024.4 1024.4 0.0
22/12:00am 12.0 9.3 7.4 73 2.2 SE 11 13 6 7 1024.3 1024.3 0.0
 
Date/Time
CST
Temp
°C
App
Temp
°C
Dew
Point
°C
Rel
Hum
%
Delta-T
°C
Wind Press
QNH
hPa
Press
MSL
hPa
Rain since
9am
mm
Dir  Spd
km/h
Gust
km/h
Spd
kts
Gust
kts
21/11:30pm 12.4 9.8 7.7 73 2.3 SE 11 11 6 6 1024.2 1024.2 0.0
21/11:00pm 12.7 9.7 7.5 70 2.5 S 13 17 7 9 1024.0 1024.0 0.0
21/10:30pm 12.9 10.7 7.8 71 2.5 S 9 13 5 7 1024.3 1024.3 0.0
21/10:00pm 13.3 11.3 8.5 72 2.4 SSE 9 13 5 7 1024.2 1024.2 0.0
21/09:30pm 13.2 11.1 8.1 71 2.5 S 9 11 5 6 1024.1 1024.1 0.0
21/09:00pm 13.7 10.8 8.0 68 2.8 SSE 13 17 7 9 1023.9 1023.9 0.0
21/08:30pm 14.8 11.9 8.0 64 3.4 S 13 19 7 10 1023.7 1023.7 0.0
21/08:00pm 15.3 12.3 7.9 61 3.7 SSE 13 17 7 9 1023.6 1023.6 0.0
21/07:30pm 15.8 11.8 8.2 60 3.8 SSE 19 26 10 14 1023.4 1023.4 0.0
21/07:00pm 16.5 12.9 8.4 58 4.1 S 17 22 9 12 1023.0 1023.0 0.0
21/06:30pm 17.2 13.8 9.3 59 4.1 SSW 17 26 9 14 1022.2 1022.2 0.0
21/06:00pm 17.3 14.4 9.6 60 4.0 SW 15 19 8 10 1022.2 1022.2 0.0
21/05:30pm 17.3 14.8 9.6 60 4.0 SW 13 17 7 9 1021.8 1021.8 0.0
21/05:00pm 18.1 15.5 9.5 57 4.5 SW 13 19 7 10 1021.5 1021.5 0.0
21/04:30pm 17.9 14.5 9.3 57 4.5 SSW 17 26 9 14 1021.0 1021.0 0.0
21/04:00pm 18.6 15.0 9.9 57 4.6 SSW 19 26 10 14 1020.7 1020.7 0.0
21/03:30pm 18.3 15.1 10.0 58 4.4 SSW 17 22 9 12 1020.5 1020.5 0.0
21/03:00pm 18.6 15.3 9.5 55 4.8 SW 17 28 9 15 1020.8 1020.8 0.0
21/02:30pm 19.1 15.1 8.2 49 5.6 SW 19 26 10 14 1020.4 1020.4 0.0
21/02:00pm 19.1 15.2 9.6 54 5.0 WSW 20 28 11 15 1020.3 1020.3 0.0
21/01:30pm 18.8 14.9 9.3 54 5.0 WSW 20 30 11 16 1020.3 1020.3 0.0
21/01:00pm 18.7 14.9 9.1 53 5.0 WSW 19 26 10 14 1020.3 1020.3 0.0
21/12:30pm 19.3 15.3 9.2 52 5.3 WSW 20 26 11 14 1020.3 1020.3 0.0
21/12:00pm 18.5 14.0 8.6 52 5.1 WSW 22 28 12 15 1020.6 1020.6 0.0
21/11:30am 18.2 13.9 10.7 61 4.0 WSW 24 30 13 16 1021.2 1021.2 0.0
21/11:00am 18.5 14.8 10.2 58 4.4 WSW 20 30 11 16 1020.4 1020.4 0.0
21/10:30am 17.6 14.9 11.7 68 3.2 W 17 22 9 12 1020.5 1020.5 0.0
21/10:00am 18.0 14.1 12.0 68 3.3 W 24 32 13 17 1020.6 1020.6 0.0
21/09:30am 18.1 15.1 11.9 67 3.4 W 19 24 10 13 1020.0 1020.0 0.0
21/09:00am 16.8 15.0 12.0 73 2.6 WNW 13 17 7 9 1020.3 1020.3 1.4
21/08:30am 16.0 14.4 12.7 81 1.8 NW 13 19 7 10 1019.8 1019.8 1.4
21/08:00am 14.9 14.5 12.9 88 1.1 NW 7 7 4 4 1019.3 1019.3 1.4
21/07:30am 14.9 11.9 11.9 82 1.6 WNW 19 26 10 14 1019.8 1019.8 0.4
21/07:00am 15.5 12.1 11.4 76 2.2 WSW 20 26 11 14 1018.5 1018.5 0.0
21/06:30am 16.5 11.8 9.4 63 3.7 W 24 30 13 16 1018.5 1018.5 0.0
21/06:00am 16.5 11.9 10.9 69 3.0 W 26 35 14 19 1018.3 1018.3 0.0
21/05:30am 16.8 11.8 10.8 67 3.2 W 28 33 15 18 1017.9 1017.9 0.0
21/05:00am 17.0 13.3 12.7 76 2.4 W 24 32 13 17 1017.2 1017.2 0.0
21/04:30am 17.8 15.1 13.4 75 2.5 WNW 20 26 11 14 1017.7 1017.7 0.0
21/04:00am 18.1 14.1 13.1 72 2.8 W 26 33 14 18 1017.3 1017.3 0.0
21/03:30am 18.5 15.3 13.2 71 3.0 W 22 32 12 17 1016.5 1016.5 0.0
21/03:00am 18.6 20.2 15.0 79 2.1 CALM 0 0 0 0 1015.9 1015.9 0.0
21/02:30am 18.6 18.8 14.6 77 2.3 S 7 9 4 5 1015.7 1015.7 0.0
21/02:00am 18.7 17.2 15.3 80 2.0 S 17 22 9 12 1015.8 1015.8 0.0
21/01:30am 18.9 16.8 15.3 79 2.1 SSW 20 28 11 15 1016.4 1016.4 0.0
21/01:00am 19.0 16.3 15.6 80 2.0 SSW 24 33 13 18 1016.1 1016.1 0.0
21/12:46am 19.2 15.9 16.0 82 1.9 SSW 28 37 15 20 1016.0 1016.0 0.0
21/12:30am 19.6 14.4 16.6 83 1.8 SW 39 52 21 28 1015.8 1015.8 0.0
21/12:00am 19.4 13.7 16.2 82 1.9 W 41 54 22 29 1014.8 1014.8 0.0
 
Date/Time
CST
Temp
°C
App
Temp
°C
Dew
Point
°C
Rel
Hum
%
Delta-T
°C
Wind Press
QNH
hPa
Press
MSL
hPa
Rain since
9am
mm
Dir  Spd
km/h
Gust
km/h
Spd
kts
Gust
kts
20/11:31pm 21.2 14.9 15.7 71 3.3 WNW 43 69 23 37 1013.5 1013.5 0.0
20/11:30pm 21.4 15.0 15.3 68 3.6 NW 43 69 23 37 1013.5 1013.5 0.0
20/11:20pm 25.7 18.8 4.7 26 10.6 N 30 56 16 30 1012.9 1012.9 0.0
20/11:00pm 27.1 19.5 0.3 17 12.6 NNE 30 37 16 20 1011.8 1011.8 0.0
20/10:30pm 27.0 19.8 0.5 18 12.5 NNE 28 37 15 20 1011.8 1011.8 0.0
20/10:00pm 27.0 19.8 0.5 18 12.5 NNE 28 39 15 21 1012.2 1012.2 0.0
20/09:30pm 27.0 20.1 0.1 17 12.6 NNE 26 35 14 19 1012.2 1012.2 0.0
20/09:00pm 27.2 21.6 0.1 17 12.7 NE 19 22 10 12 1012.1 1012.1 0.0
20/08:30pm 26.5 20.5 1.0 19 12.1 NE 22 30 12 16 1012.1 1012.1 0.0
20/08:00pm 25.3 20.1 2.6 23 11.0 NNE 19 24 10 13 1012.5 1012.5 0.0
20/07:30pm 25.3 21.4 5.2 27 10.2 NE 15 17 8 9 1012.5 1012.5 0.0
20/07:00pm 25.9 22.4 5.3 26 10.5 ENE 13 15 7 8 1012.5 1012.5 0.0
20/06:30pm 27.3 22.4 4.1 22 11.7 N 19 30 10 16 1012.5 1012.5 0.0
20/06:00pm 26.8 21.7 6.0 26 10.8 NNW 22 30 12 16 1012.2 1012.2 0.0
20/05:30pm 26.4 21.6 7.4 30 10.1 NNW 22 30 12 16 1012.1 1012.1 0.0
20/05:00pm 27.3 21.0 5.7 25 11.2 NNW 28 35 15 19 1012.1 1012.1 0.0
20/04:30pm 28.6 23.2 4.6 21 12.3 NNW 22 32 12 17 1012.3 1012.3 0.0
20/04:00pm 28.9 22.2 3.8 20 12.7 NNW 28 33 15 18 1012.4 1012.4 0.0
20/03:30pm 30.1 23.7 3.1 18 13.6 NNW 26 35 14 19 1012.9 1012.9 0.0
20/03:00pm 30.2 23.6 4.4 19 13.3 NNW 28 35 15 19 1013.2 1013.2 0.0
20/02:30pm 29.4 23.2 6.1 23 12.3 NNW 28 35 15 19 1013.5 1013.5 0.0
20/02:00pm 29.8 22.9 4.6 20 13.0 NNW 30 37 16 20 1013.9 1013.9 0.0
20/01:30pm 29.7 22.7 4.1 19 13.1 NNW 30 37 16 20 1014.3 1014.3 0.0
20/01:00pm 30.8 22.3 1.2 15 14.5 N 35 50 19 27 1014.6 1014.6 0.0
20/12:30pm 31.3 22.7 -0.1 13 15.1 N 35 52 19 28 1015.2 1015.2 0.0
20/12:24pm 30.9 22.7 0.2 14 14.8 N 33 52 18 28 1015.3 1015.3 0.0

Latest Capital City Observations: Canberra | Sydney | Melbourne | Brisbane | Adelaide | Perth | Hobart | Darwin

Other formats

Comma delimited format used in spreadsheet applications
http://www.bom.gov.au/fwo/IDS60901/IDS60901.94672.axf

JavaScript Object Notation format (JSON) in row-major order
http://www.bom.gov.au/fwo/IDS60901/IDS60901.94672.json

Data quality

Most of these data are generated automatically and are frequently updated. Quality checks on data are not normally performed. It is possible for incorrect values to appear. Refer to information at About Latest Weather Observations and please check the disclaimer before using these data.